sensor_id;sensor_type;location;lat;lon;timestamp;pressure;altitude;pressure_sealevel;temperature;humidity
21240;BME280;10778;48.962;9.018;2022-12-07T00:01:23;99230.91;;;2.06;100.00
21240;BME280;10778;48.962;9.018;2022-12-07T00:03:52;99221.44;;;2.05;100.00
21240;BME280;10778;48.962;9.018;2022-12-07T00:06:19;99222.84;;;1.94;100.00
21240;BME280;10778;48.962;9.018;2022-12-07T00:08:46;99220.09;;;1.97;100.00
21240;BME280;10778;48.962;9.018;2022-12-07T00:11:15;99223.00;;;1.91;100.00
21240;BME280;10778;48.962;9.018;2022-12-07T00:13:41;99225.00;;;1.86;100.00
21240;BME280;10778;48.962;9.018;2022-12-07T00:16:16;99221.56;;;1.85;100.00
21240;BME280;10778;48.962;9.018;2022-12-07T00:18:44;99223.69;;;1.95;100.00
21240;BME280;10778;48.962;9.018;2022-12-07T00:21:18;99221.31;;;1.90;100.00
21240;BME280;10778;48.962;9.018;2022-12-07T00:23:46;99216.97;;;1.91;100.00
21240;BME280;10778;48.962;9.018;2022-12-07T00:26:14;99220.41;;;1.91;100.00
21240;BME280;10778;48.962;9.018;2022-12-07T00:28:40;99220.72;;;1.85;100.00
21240;BME280;10778;48.962;9.018;2022-12-07T00:31:11;99216.88;;;1.92;100.00
21240;BME280;10778;48.962;9.018;2022-12-07T00:33:38;99215.22;;;1.91;100.00
21240;BME280;10778;48.962;9.018;2022-12-07T00:36:10;99215.16;;;1.93;100.00
21240;BME280;10778;48.962;9.018;2022-12-07T00:38:37;99214.63;;;1.86;100.00
21240;BME280;10778;48.962;9.018;2022-12-07T00:41:11;99209.44;;;1.86;100.00
21240;BME280;10778;48.962;9.018;2022-12-07T00:43:38;99212.94;;;1.85;100.00
21240;BME280;10778;48.962;9.018;2022-12-07T00:46:05;99212.03;;;1.86;100.00
21240;BME280;10778;48.962;9.018;2022-12-07T00:48:31;99210.34;;;1.85;100.00
21240;BME280;10778;48.962;9.018;2022-12-07T00:50:57;99219.13;;;1.82;100.00
21240;BME280;10778;48.962;9.018;2022-12-07T00:53:23;99219.97;;;1.83;100.00
21240;BME280;10778;48.962;9.018;2022-12-07T00:55:49;99217.03;;;1.73;100.00
21240;BME280;10778;48.962;9.018;2022-12-07T00:58:16;99212.50;;;1.77;100.00
21240;BME280;10778;48.962;9.018;2022-12-07T01:00:42;99220.66;;;1.69;100.00
21240;BME280;10778;48.962;9.018;2022-12-07T01:03:11;99219.69;;;1.72;100.00
21240;BME280;10778;48.962;9.018;2022-12-07T01:05:38;99222.88;;;1.77;100.00
21240;BME280;10778;48.962;9.018;2022-12-07T01:08:05;99220.78;;;1.83;100.00
21240;BME280;10778;48.962;9.018;2022-12-07T01:10:32;99213.94;;;1.82;100.00
21240;BME280;10778;48.962;9.018;2022-12-07T01:12:58;99218.22;;;1.83;100.00
21240;BME280;10778;48.962;9.018;2022-12-07T01:15:25;99216.63;;;1.81;100.00
21240;BME280;10778;48.962;9.018;2022-12-07T01:17:51;99214.03;;;1.81;100.00
21240;BME280;10778;48.962;9.018;2022-12-07T01:20:18;99215.84;;;1.79;100.00
21240;BME280;10778;48.962;9.018;2022-12-07T01:22:44;99214.94;;;1.80;100.00
21240;BME280;10778;48.962;9.018;2022-12-07T01:25:11;99216.16;;;1.73;100.00
21240;BME280;10778;48.962;9.018;2022-12-07T01:27:37;99217.94;;;1.72;100.00
21240;BME280;10778;48.962;9.018;2022-12-07T01:30:05;99214.25;;;1.76;100.00
21240;BME280;10778;48.962;9.018;2022-12-07T01:32:32;99220.13;;;1.80;100.00
21240;BME280;10778;48.962;9.018;2022-12-07T01:34:58;99223.72;;;1.77;100.00
21240;BME280;10778;48.962;9.018;2022-12-07T01:37:24;99227.91;;;1.80;100.00
21240;BME280;10778;48.962;9.018;2022-12-07T01:39:51;99224.91;;;1.88;100.00
21240;BME280;10778;48.962;9.018;2022-12-07T01:42:18;99224.00;;;1.89;100.00
21240;BME280;10778;48.962;9.018;2022-12-07T01:47:53;99225.16;;;1.83;100.00
21240;BME280;10778;48.962;9.018;2022-12-07T01:50:24;99222.41;;;1.86;100.00
21240;BME280;10778;48.962;9.018;2022-12-07T01:52:53;99221.66;;;1.84;100.00
21240;BME280;10778;48.962;9.018;2022-12-07T01:55:21;99219.06;;;1.84;100.00
21240;BME280;10778;48.962;9.018;2022-12-07T01:57:50;99226.84;;;1.84;100.00
21240;BME280;10778;48.962;9.018;2022-12-07T02:00:18;99228.75;;;1.80;100.00
21240;BME280;10778;48.962;9.018;2022-12-07T02:02:52;99217.63;;;1.78;100.00
21240;BME280;10778;48.962;9.018;2022-12-07T02:05:19;99216.63;;;1.81;100.00
21240;BME280;10778;48.962;9.018;2022-12-07T02:07:47;99225.63;;;1.74;100.00
21240;BME280;10778;48.962;9.018;2022-12-07T02:10:16;99221.28;;;1.74;100.00
21240;BME280;10778;48.962;9.018;2022-12-07T02:12:44;99224.13;;;1.69;100.00
21240;BME280;10778;48.962;9.018;2022-12-07T02:15:12;99218.69;;;1.74;100.00
21240;BME280;10778;48.962;9.018;2022-12-07T02:18:09;99211.84;;;1.73;100.00
21240;BME280;10778;48.962;9.018;2022-12-07T02:26:02;99207.78;;;1.67;100.00
21240;BME280;10778;48.962;9.018;2022-12-07T02:31:23;99210.63;;;1.63;100.00
21240;BME280;10778;48.962;9.018;2022-12-07T02:33:59;99197.22;;;1.54;100.00
21240;BME280;10778;48.962;9.018;2022-12-07T02:36:32;99202.69;;;1.48;100.00
21240;BME280;10778;48.962;9.018;2022-12-07T02:39:08;99198.91;;;1.38;100.00
21240;BME280;10778;48.962;9.018;2022-12-07T02:41:43;99202.16;;;1.41;100.00
21240;BME280;10778;48.962;9.018;2022-12-07T02:44:21;99196.06;;;1.42;100.00
21240;BME280;10778;48.962;9.018;2022-12-07T02:46:59;99203.25;;;1.37;100.00
21240;BME280;10778;48.962;9.018;2022-12-07T02:49:29;99198.13;;;1.36;100.00
21240;BME280;10778;48.962;9.018;2022-12-07T02:51:56;99188.53;;;1.38;100.00
21240;BME280;10778;48.962;9.018;2022-12-07T02:54:22;99198.06;;;1.37;100.00
21240;BME280;10778;48.962;9.018;2022-12-07T02:56:53;99192.94;;;1.36;100.00
21240;BME280;10778;48.962;9.018;2022-12-07T03:00:05;99184.09;;;1.40;100.00
21240;BME280;10778;48.962;9.018;2022-12-07T03:10:17;99191.03;;;1.39;100.00
21240;BME280;10778;48.962;9.018;2022-12-07T03:15:45;99181.34;;;1.43;100.00
21240;BME280;10778;48.962;9.018;2022-12-07T03:18:16;99182.88;;;1.47;100.00
21240;BME280;10778;48.962;9.018;2022-12-07T03:20:44;99177.22;;;1.56;100.00
21240;BME280;10778;48.962;9.018;2022-12-07T03:23:12;99182.34;;;1.40;100.00
21240;BME280;10778;48.962;9.018;2022-12-07T03:25:43;99178.00;;;1.41;100.00
21240;BME280;10778;48.962;9.018;2022-12-07T03:28:11;99172.81;;;1.41;100.00
21240;BME280;10778;48.962;9.018;2022-12-07T03:30:46;99174.19;;;1.31;100.00
21240;BME280;10778;48.962;9.018;2022-12-07T03:33:33;99180.44;;;1.26;100.00
21240;BME280;10778;48.962;9.018;2022-12-07T03:36:28;99177.84;;;1.26;100.00
21240;BME280;10778;48.962;9.018;2022-12-07T03:41:31;99164.56;;;1.33;100.00
21240;BME280;10778;48.962;9.018;2022-12-07T03:43:58;99161.06;;;1.34;100.00
21240;BME280;10778;48.962;9.018;2022-12-07T03:49:24;99155.97;;;1.32;100.00
21240;BME280;10778;48.962;9.018;2022-12-07T03:55:00;99147.69;;;1.25;100.00
21240;BME280;10778;48.962;9.018;2022-12-07T03:57:29;99152.84;;;1.25;100.00
21240;BME280;10778;48.962;9.018;2022-12-07T03:59:57;99149.56;;;1.22;100.00
21240;BME280;10778;48.962;9.018;2022-12-07T04:02:26;99155.63;;;1.22;100.00
21240;BME280;10778;48.962;9.018;2022-12-07T04:04:54;99150.25;;;1.25;100.00
21240;BME280;10778;48.962;9.018;2022-12-07T04:07:20;99148.97;;;1.17;100.00
21240;BME280;10778;48.962;9.018;2022-12-07T04:09:46;99140.88;;;1.23;100.00
21240;BME280;10778;48.962;9.018;2022-12-07T04:12:12;99138.59;;;1.17;100.00
21240;BME280;10778;48.962;9.018;2022-12-07T04:14:38;99134.41;;;1.14;100.00
21240;BME280;10778;48.962;9.018;2022-12-07T04:17:04;99140.13;;;1.21;100.00
21240;BME280;10778;48.962;9.018;2022-12-07T04:19:32;99144.63;;;1.17;100.00
21240;BME280;10778;48.962;9.018;2022-12-07T04:22:00;99148.97;;;1.17;100.00
21240;BME280;10778;48.962;9.018;2022-12-07T04:24:27;99144.78;;;1.14;100.00
21240;BME280;10778;48.962;9.018;2022-12-07T04:26:54;99152.47;;;1.16;100.00
21240;BME280;10778;48.962;9.018;2022-12-07T04:29:21;99149.19;;;1.12;100.00
21240;BME280;10778;48.962;9.018;2022-12-07T04:31:47;99147.53;;;1.11;100.00
21240;BME280;10778;48.962;9.018;2022-12-07T04:34:13;99144.41;;;1.04;100.00
21240;BME280;10778;48.962;9.018;2022-12-07T04:36:40;99148.75;;;1.04;100.00
21240;BME280;10778;48.962;9.018;2022-12-07T04:39:17;99151.19;;;1.07;100.00
21240;BME280;10778;48.962;9.018;2022-12-07T04:41:44;99153.09;;;1.03;100.00
21240;BME280;10778;48.962;9.018;2022-12-07T04:44:12;99160.00;;;1.03;100.00
21240;BME280;10778;48.962;9.018;2022-12-07T04:46:40;99151.03;;;0.92;100.00
21240;BME280;10778;48.962;9.018;2022-12-07T04:49:07;99152.72;;;0.93;100.00
21240;BME280;10778;48.962;9.018;2022-12-07T04:51:33;99146.28;;;0.83;100.00
21240;BME280;10778;48.962;9.018;2022-12-07T04:53:59;99144.97;;;0.74;100.00
21240;BME280;10778;48.962;9.018;2022-12-07T04:56:25;99146.13;;;0.68;100.00
21240;BME280;10778;48.962;9.018;2022-12-07T04:58:53;99152.34;;;0.64;100.00
21240;BME280;10778;48.962;9.018;2022-12-07T05:01:20;99150.53;;;0.66;100.00
21240;BME280;10778;48.962;9.018;2022-12-07T05:03:47;99154.72;;;0.69;100.00
21240;BME280;10778;48.962;9.018;2022-12-07T05:06:14;99158.84;;;0.73;100.00
21240;BME280;10778;48.962;9.018;2022-12-07T05:08:41;99154.16;;;0.81;100.00
21240;BME280;10778;48.962;9.018;2022-12-07T05:11:07;99157.50;;;0.83;100.00
21240;BME280;10778;48.962;9.018;2022-12-07T05:13:34;99162.31;;;0.91;100.00
21240;BME280;10778;48.962;9.018;2022-12-07T05:16:01;99159.88;;;0.88;100.00
21240;BME280;10778;48.962;9.018;2022-12-07T05:18:27;99157.72;;;0.96;100.00
21240;BME280;10778;48.962;9.018;2022-12-07T05:20:53;99159.34;;;0.99;100.00
21240;BME280;10778;48.962;9.018;2022-12-07T05:23:19;99152.38;;;0.99;100.00
21240;BME280;10778;48.962;9.018;2022-12-07T05:25:46;99156.44;;;1.05;100.00
21240;BME280;10778;48.962;9.018;2022-12-07T05:28:12;99152.16;;;1.22;100.00
21240;BME280;10778;48.962;9.018;2022-12-07T05:30:38;99151.72;;;1.13;100.00
21240;BME280;10778;48.962;9.018;2022-12-07T05:33:05;99153.16;;;1.19;100.00
21240;BME280;10778;48.962;9.018;2022-12-07T05:35:31;99151.63;;;1.15;100.00
21240;BME280;10778;48.962;9.018;2022-12-07T05:37:57;99146.22;;;1.20;100.00
21240;BME280;10778;48.962;9.018;2022-12-07T05:40:24;99149.19;;;1.30;100.00
21240;BME280;10778;48.962;9.018;2022-12-07T05:42:50;99150.03;;;1.30;100.00
21240;BME280;10778;48.962;9.018;2022-12-07T05:45:16;99154.22;;;1.33;100.00
21240;BME280;10778;48.962;9.018;2022-12-07T05:47:42;99149.78;;;1.35;100.00
21240;BME280;10778;48.962;9.018;2022-12-07T05:50:08;99151.16;;;1.42;100.00
21240;BME280;10778;48.962;9.018;2022-12-07T05:52:34;99150.78;;;1.50;100.00
21240;BME280;10778;48.962;9.018;2022-12-07T05:55:00;99154.88;;;1.54;100.00
21240;BME280;10778;48.962;9.018;2022-12-07T05:57:26;99146.50;;;1.49;100.00
21240;BME280;10778;48.962;9.018;2022-12-07T05:59:52;99150.94;;;1.47;100.00
21240;BME280;10778;48.962;9.018;2022-12-07T06:02:18;99153.59;;;1.45;100.00
21240;BME280;10778;48.962;9.018;2022-12-07T06:04:46;99152.44;;;1.51;100.00
21240;BME280;10778;48.962;9.018;2022-12-07T06:07:14;99151.84;;;1.46;100.00
21240;BME280;10778;48.962;9.018;2022-12-07T06:09:40;99149.25;;;1.46;100.00
21240;BME280;10778;48.962;9.018;2022-12-07T06:12:08;99154.69;;;1.41;100.00
21240;BME280;10778;48.962;9.018;2022-12-07T06:14:53;99151.63;;;1.33;100.00
21240;BME280;10778;48.962;9.018;2022-12-07T06:17:19;99143.97;;;1.47;100.00
21240;BME280;10778;48.962;9.018;2022-12-07T06:19:45;99139.78;;;1.45;100.00
21240;BME280;10778;48.962;9.018;2022-12-07T06:22:12;99147.72;;;1.41;100.00
21240;BME280;10778;48.962;9.018;2022-12-07T06:24:38;99145.22;;;1.40;100.00
21240;BME280;10778;48.962;9.018;2022-12-07T06:27:05;99154.44;;;1.46;100.00
21240;BME280;10778;48.962;9.018;2022-12-07T06:29:32;99146.81;;;1.42;100.00
21240;BME280;10778;48.962;9.018;2022-12-07T06:31:58;99147.50;;;1.46;100.00
21240;BME280;10778;48.962;9.018;2022-12-07T06:34:24;99152.44;;;1.51;100.00
21240;BME280;10778;48.962;9.018;2022-12-07T06:36:51;99145.97;;;1.42;100.00
21240;BME280;10778;48.962;9.018;2022-12-07T06:39:20;99153.66;;;1.44;100.00
21240;BME280;10778;48.962;9.018;2022-12-07T06:41:47;99152.69;;;1.46;100.00
21240;BME280;10778;48.962;9.018;2022-12-07T06:44:13;99150.78;;;1.50;100.00
21240;BME280;10778;48.962;9.018;2022-12-07T06:46:39;99151.44;;;1.53;100.00
21240;BME280;10778;48.962;9.018;2022-12-07T06:49:05;99145.50;;;1.51;100.00
21240;BME280;10778;48.962;9.018;2022-12-07T06:51:33;99149.91;;;1.49;100.00
21240;BME280;10778;48.962;9.018;2022-12-07T06:54:03;99153.78;;;1.58;100.00
21240;BME280;10778;48.962;9.018;2022-12-07T06:56:29;99149.00;;;1.50;100.00
21240;BME280;10778;48.962;9.018;2022-12-07T06:58:55;99163.19;;;1.61;100.00
21240;BME280;10778;48.962;9.018;2022-12-07T07:01:21;99160.00;;;1.55;100.00
21240;BME280;10778;48.962;9.018;2022-12-07T07:03:47;99156.56;;;1.55;100.00
21240;BME280;10778;48.962;9.018;2022-12-07T07:06:14;99164.16;;;1.58;100.00
21240;BME280;10778;48.962;9.018;2022-12-07T07:08:40;99169.97;;;1.63;100.00
21240;BME280;10778;48.962;9.018;2022-12-07T07:11:08;99170.88;;;1.62;100.00
21240;BME280;10778;48.962;9.018;2022-12-07T07:13:35;99168.59;;;1.56;100.00
21240;BME280;10778;48.962;9.018;2022-12-07T07:16:01;99170.38;;;1.55;100.00
21240;BME280;10778;48.962;9.018;2022-12-07T07:18:28;99170.22;;;1.59;100.00
21240;BME280;10778;48.962;9.018;2022-12-07T07:20:54;99168.97;;;1.66;100.00
21240;BME280;10778;48.962;9.018;2022-12-07T07:23:21;99162.56;;;1.73;100.00
21240;BME280;10778;48.962;9.018;2022-12-07T07:25:47;99166.19;;;1.69;100.00
21240;BME280;10778;48.962;9.018;2022-12-07T07:28:14;99173.91;;;1.70;100.00
21240;BME280;10778;48.962;9.018;2022-12-07T07:30:41;99176.44;;;1.72;100.00
21240;BME280;10778;48.962;9.018;2022-12-07T07:33:07;99169.94;;;1.81;100.00
21240;BME280;10778;48.962;9.018;2022-12-07T07:35:34;99174.28;;;1.80;99.75
21240;BME280;10778;48.962;9.018;2022-12-07T07:38:00;99176.47;;;1.88;100.00
21240;BME280;10778;48.962;9.018;2022-12-07T07:40:27;99169.91;;;2.93;100.00
21240;BME280;10778;48.962;9.018;2022-12-07T07:42:55;99160.63;;;3.49;100.00
21240;BME280;10778;48.962;9.018;2022-12-07T07:45:22;99170.59;;;3.86;99.92
21240;BME280;10778;48.962;9.018;2022-12-07T07:47:49;99168.91;;;3.55;91.65
21240;BME280;10778;48.962;9.018;2022-12-07T07:50:16;99175.81;;;3.71;94.74
21240;BME280;10778;48.962;9.018;2022-12-07T07:52:43;99180.91;;;3.44;90.59
21240;BME280;10778;48.962;9.018;2022-12-07T07:55:09;99180.25;;;3.54;91.22
21240;BME280;10778;48.962;9.018;2022-12-07T07:57:36;99181.63;;;3.46;91.07
21240;BME280;10778;48.962;9.018;2022-12-07T08:00:05;99178.38;;;3.27;91.31
21240;BME280;10778;48.962;9.018;2022-12-07T08:02:38;99180.06;;;3.43;92.48
21240;BME280;10778;48.962;9.018;2022-12-07T08:05:05;99183.78;;;3.53;93.88
21240;BME280;10778;48.962;9.018;2022-12-07T08:07:31;99188.81;;;3.56;90.56
21240;BME280;10778;48.962;9.018;2022-12-07T08:09:57;99185.75;;;3.64;90.83
21240;BME280;10778;48.962;9.018;2022-12-07T08:12:23;99182.25;;;4.51;88.83
21240;BME280;10778;48.962;9.018;2022-12-07T08:14:49;99186.41;;;4.11;85.00
21240;BME280;10778;48.962;9.018;2022-12-07T08:17:15;99182.00;;;4.26;88.41
21240;BME280;10778;48.962;9.018;2022-12-07T08:19:41;99183.03;;;4.24;85.54
21240;BME280;10778;48.962;9.018;2022-12-07T08:22:08;99192.91;;;4.04;88.48
21240;BME280;10778;48.962;9.018;2022-12-07T08:24:35;99193.09;;;4.01;87.99
21240;BME280;10778;48.962;9.018;2022-12-07T08:27:02;99185.75;;;3.93;85.33
21240;BME280;10778;48.962;9.018;2022-12-07T08:29:28;99191.03;;;4.35;83.96
21240;BME280;10778;48.962;9.018;2022-12-07T08:31:55;99192.56;;;3.96;86.61
21240;BME280;10778;48.962;9.018;2022-12-07T08:34:21;99200.44;;;3.94;87.49
21240;BME280;10778;48.962;9.018;2022-12-07T08:36:47;99191.50;;;4.13;84.63
21240;BME280;10778;48.962;9.018;2022-12-07T08:39:13;99196.91;;;3.95;86.76
21240;BME280;10778;48.962;9.018;2022-12-07T08:41:39;99191.16;;;3.90;85.44
21240;BME280;10778;48.962;9.018;2022-12-07T08:44:05;99198.84;;;3.92;88.35
21240;BME280;10778;48.962;9.018;2022-12-07T08:46:35;99197.38;;;4.02;85.86
21240;BME280;10778;48.962;9.018;2022-12-07T08:49:06;99206.75;;;3.61;87.35
21240;BME280;10778;48.962;9.018;2022-12-07T08:51:33;99194.13;;;3.55;89.18
21240;BME280;10778;48.962;9.018;2022-12-07T08:54:01;99204.66;;;3.37;88.42
21240;BME280;10778;48.962;9.018;2022-12-07T08:56:29;99194.56;;;3.76;88.76
21240;BME280;10778;48.962;9.018;2022-12-07T08:58:55;99197.25;;;4.18;86.79
21240;BME280;10778;48.962;9.018;2022-12-07T09:01:22;99194.97;;;3.84;87.13
21240;BME280;10778;48.962;9.018;2022-12-07T09:03:48;99194.47;;;3.63;85.62
21240;BME280;10778;48.962;9.018;2022-12-07T09:06:15;99201.16;;;3.67;87.71
21240;BME280;10778;48.962;9.018;2022-12-07T09:08:44;99194.75;;;3.73;87.18
21240;BME280;10778;48.962;9.018;2022-12-07T09:11:11;99194.19;;;3.53;87.08
21240;BME280;10778;48.962;9.018;2022-12-07T09:13:37;99201.53;;;3.61;88.94
21240;BME280;10778;48.962;9.018;2022-12-07T09:16:04;99201.41;;;3.34;88.83
21240;BME280;10778;48.962;9.018;2022-12-07T09:18:30;99200.38;;;3.06;90.81
21240;BME280;10778;48.962;9.018;2022-12-07T09:20:56;99197.84;;;3.20;91.61
21240;BME280;10778;48.962;9.018;2022-12-07T09:23:22;99197.84;;;3.20;93.01
21240;BME280;10778;48.962;9.018;2022-12-07T09:25:48;99193.97;;;3.27;95.17
21240;BME280;10778;48.962;9.018;2022-12-07T09:28:15;99193.47;;;3.21;94.08
21240;BME280;10778;48.962;9.018;2022-12-07T09:30:48;99198.47;;;3.09;94.96
21240;BME280;10778;48.962;9.018;2022-12-07T09:33:14;99200.22;;;3.09;94.84
21240;BME280;10778;48.962;9.018;2022-12-07T09:35:45;99204.06;;;3.18;96.16
21240;BME280;10778;48.962;9.018;2022-12-07T09:38:12;99202.78;;;2.94;96.06
21240;BME280;10778;48.962;9.018;2022-12-07T09:40:38;99194.47;;;2.88;97.61
21240;BME280;10778;48.962;9.018;2022-12-07T09:43:05;99200.00;;;2.97;99.26
21240;BME280;10778;48.962;9.018;2022-12-07T09:45:34;99194.13;;;3.24;97.34
21240;BME280;10778;48.962;9.018;2022-12-07T09:48:03;99195.63;;;3.29;97.42
21240;BME280;10778;48.962;9.018;2022-12-07T09:50:30;99192.97;;;3.45;96.14
21240;BME280;10778;48.962;9.018;2022-12-07T09:53:07;99191.09;;;3.47;96.43
21240;BME280;10778;48.962;9.018;2022-12-07T09:55:36;99188.06;;;3.69;96.59
21240;BME280;10778;48.962;9.018;2022-12-07T09:58:02;99186.50;;;3.81;96.26
21240;BME280;10778;48.962;9.018;2022-12-07T10:00:29;99186.03;;;4.03;94.52
21240;BME280;10778;48.962;9.018;2022-12-07T10:02:58;99179.59;;;4.23;94.68
21240;BME280;10778;48.962;9.018;2022-12-07T10:05:32;99178.41;;;4.15;94.31
21240;BME280;10778;48.962;9.018;2022-12-07T10:08:01;99173.81;;;4.33;91.88
21240;BME280;10778;48.962;9.018;2022-12-07T10:10:30;99170.47;;;4.31;92.98
21240;BME280;10778;48.962;9.018;2022-12-07T10:13:05;99163.84;;;4.39;91.45
21240;BME280;10778;48.962;9.018;2022-12-07T10:23:27;99151.88;;;7.53;77.11
21240;BME280;10778;48.962;9.018;2022-12-07T10:25:54;99164.81;;;5.97;80.82
21240;BME280;10778;48.962;9.018;2022-12-07T10:28:21;99159.19;;;5.12;85.59
21240;BME280;10778;48.962;9.018;2022-12-07T10:30:59;99160.47;;;4.10;90.47
21240;BME280;10778;48.962;9.018;2022-12-07T10:35:54;99165.94;;;3.76;93.36
21240;BME280;10778;48.962;9.018;2022-12-07T10:38:20;99169.38;;;3.48;94.00
21240;BME280;10778;48.962;9.018;2022-12-07T10:40:46;99168.38;;;3.50;93.84
21240;BME280;10778;48.962;9.018;2022-12-07T10:46:13;99168.78;;;3.28;95.42
21240;BME280;10778;48.962;9.018;2022-12-07T10:52:03;99157.91;;;3.21;97.34
21240;BME280;10778;48.962;9.018;2022-12-07T10:54:41;99160.63;;;3.20;98.30
21240;BME280;10778;48.962;9.018;2022-12-07T11:00:04;99153.28;;;3.26;96.94
21240;BME280;10778;48.962;9.018;2022-12-07T11:02:48;99144.75;;;3.39;97.16
21240;BME280;10778;48.962;9.018;2022-12-07T11:05:39;99140.28;;;3.41;94.97
21240;BME280;10778;48.962;9.018;2022-12-07T11:08:34;99143.94;;;3.53;95.19
21240;BME280;10778;48.962;9.018;2022-12-07T11:19:29;99120.72;;;4.76;88.92
21240;BME280;10778;48.962;9.018;2022-12-07T11:22:01;99119.13;;;5.13;87.50
21240;BME280;10778;48.962;9.018;2022-12-07T11:27:08;99115.56;;;4.34;88.57
21240;BME280;10778;48.962;9.018;2022-12-07T11:38:03;99118.41;;;4.16;88.58
21240;BME280;10778;48.962;9.018;2022-12-07T11:40:35;99104.22;;;4.35;89.51
21240;BME280;10778;48.962;9.018;2022-12-07T11:43:13;99112.03;;;4.35;88.99
21240;BME280;10778;48.962;9.018;2022-12-07T11:45:44;99105.41;;;4.02;90.12
21240;BME280;10778;48.962;9.018;2022-12-07T11:51:10;99106.66;;;3.96;91.77
21240;BME280;10778;48.962;9.018;2022-12-07T11:53:53;99097.25;;;3.93;91.74
21240;BME280;10778;48.962;9.018;2022-12-07T11:56:22;99096.88;;;3.99;91.85
21240;BME280;10778;48.962;9.018;2022-12-07T11:59:31;99092.44;;;3.87;92.28
21240;BME280;10778;48.962;9.018;2022-12-07T12:02:03;99097.28;;;3.64;92.34
21240;BME280;10778;48.962;9.018;2022-12-07T12:07:14;99086.13;;;3.77;91.79
21240;BME280;10778;48.962;9.018;2022-12-07T12:12:36;99083.06;;;3.70;92.34
21240;BME280;10778;48.962;9.018;2022-12-07T12:18:15;99076.59;;;3.48;94.02
21240;BME280;10778;48.962;9.018;2022-12-07T12:20:55;99073.78;;;3.37;94.41
21240;BME280;10778;48.962;9.018;2022-12-07T12:23:24;99071.19;;;3.37;95.45
21240;BME280;10778;48.962;9.018;2022-12-07T12:25:59;99070.72;;;3.30;95.74
21240;BME280;10778;48.962;9.018;2022-12-07T12:31:12;99079.66;;;3.40;95.01
21240;BME280;10778;48.962;9.018;2022-12-07T12:33:48;99073.59;;;3.40;94.40
21240;BME280;10778;48.962;9.018;2022-12-07T12:38:49;99068.88;;;3.47;95.89
21240;BME280;10778;48.962;9.018;2022-12-07T12:51:50;99065.53;;;3.45;94.44
21240;BME280;10778;48.962;9.018;2022-12-07T13:02:27;99055.78;;;3.48;95.36
21240;BME280;10778;48.962;9.018;2022-12-07T13:18:38;99036.84;;;3.46;94.88
21240;BME280;10778;48.962;9.018;2022-12-07T13:31:41;99034.22;;;3.46;95.74
21240;BME280;10778;48.962;9.018;2022-12-07T13:34:33;99031.97;;;3.40;94.46
21240;BME280;10778;48.962;9.018;2022-12-07T13:37:27;99030.03;;;3.44;95.11
21240;BME280;10778;48.962;9.018;2022-12-07T13:39:56;99034.31;;;3.59;94.75
21240;BME280;10778;48.962;9.018;2022-12-07T13:42:30;99023.50;;;3.51;93.83
21240;BME280;10778;48.962;9.018;2022-12-07T13:44:58;99023.09;;;3.44;95.11
21240;BME280;10778;48.962;9.018;2022-12-07T13:47:32;99026.44;;;3.46;95.44
21240;BME280;10778;48.962;9.018;2022-12-07T13:50:15;99028.28;;;3.30;95.16
21240;BME280;10778;48.962;9.018;2022-12-07T13:52:47;99028.94;;;3.19;95.92
21240;BME280;10778;48.962;9.018;2022-12-07T13:55:16;99027.91;;;3.21;96.10
21240;BME280;10778;48.962;9.018;2022-12-07T13:57:44;99030.78;;;3.17;97.05
21240;BME280;10778;48.962;9.018;2022-12-07T14:00:20;99033.56;;;3.13;98.21
21240;BME280;10778;48.962;9.018;2022-12-07T14:05:43;99036.53;;;3.07;98.96
21240;BME280;10778;48.962;9.018;2022-12-07T14:10:41;99035.25;;;3.15;100.00
21240;BME280;10778;48.962;9.018;2022-12-07T14:13:34;99038.41;;;3.05;100.00
21240;BME280;10778;48.962;9.018;2022-12-07T14:16:02;99032.63;;;3.15;100.00
21240;BME280;10778;48.962;9.018;2022-12-07T14:18:39;99032.72;;;2.98;100.00
21240;BME280;10778;48.962;9.018;2022-12-07T14:21:15;99037.38;;;2.93;100.00
21240;BME280;10778;48.962;9.018;2022-12-07T14:23:42;99031.50;;;2.90;100.00
21240;BME280;10778;48.962;9.018;2022-12-07T14:26:13;99029.06;;;2.72;100.00
21240;BME280;10778;48.962;9.018;2022-12-07T14:28:42;99023.88;;;2.72;100.00
21240;BME280;10778;48.962;9.018;2022-12-07T14:31:21;99027.03;;;2.77;100.00
21240;BME280;10778;48.962;9.018;2022-12-07T14:33:49;99029.25;;;2.69;100.00
21240;BME280;10778;48.962;9.018;2022-12-07T14:36:15;99028.41;;;2.68;100.00
21240;BME280;10778;48.962;9.018;2022-12-07T14:38:41;99024.88;;;2.69;100.00
21240;BME280;10778;48.962;9.018;2022-12-07T14:41:14;99022.50;;;2.81;100.00
21240;BME280;10778;48.962;9.018;2022-12-07T14:44:00;99025.63;;;2.72;100.00
21240;BME280;10778;48.962;9.018;2022-12-07T14:46:26;99024.94;;;2.53;100.00
21240;BME280;10778;48.962;9.018;2022-12-07T14:48:52;99027.94;;;2.62;100.00
21240;BME280;10778;48.962;9.018;2022-12-07T14:51:18;99026.06;;;2.49;100.00
21240;BME280;10778;48.962;9.018;2022-12-07T14:53:48;99033.78;;;2.65;100.00
21240;BME280;10778;48.962;9.018;2022-12-07T14:56:14;99036.16;;;2.54;100.00
21240;BME280;10778;48.962;9.018;2022-12-07T14:58:40;99030.41;;;2.49;100.00
21240;BME280;10778;48.962;9.018;2022-12-07T15:01:06;99030.34;;;2.50;100.00
21240;BME280;10778;48.962;9.018;2022-12-07T15:03:32;99029.47;;;2.50;100.00
21240;BME280;10778;48.962;9.018;2022-12-07T15:06:00;99037.00;;;2.54;100.00
21240;BME280;10778;48.962;9.018;2022-12-07T15:08:26;99036.16;;;2.54;100.00
21240;BME280;10778;48.962;9.018;2022-12-07T15:10:53;99032.75;;;2.53;100.00
21240;BME280;10778;48.962;9.018;2022-12-07T15:13:19;99034.03;;;2.61;100.00
21240;BME280;10778;48.962;9.018;2022-12-07T15:16:05;99035.34;;;2.53;100.00
21240;BME280;10778;48.962;9.018;2022-12-07T15:18:33;99029.13;;;2.56;100.00
21240;BME280;10778;48.962;9.018;2022-12-07T15:20:59;99026.41;;;2.43;100.00
21240;BME280;10778;48.962;9.018;2022-12-07T15:23:25;99034.44;;;2.38;100.00
21240;BME280;10778;48.962;9.018;2022-12-07T15:25:51;99033.00;;;2.49;100.00
21240;BME280;10778;48.962;9.018;2022-12-07T15:28:17;99043.75;;;2.42;100.00
21240;BME280;10778;48.962;9.018;2022-12-07T15:30:44;99034.28;;;2.41;100.00